sensor_id;sensor_type;location;lat;lon;timestamp;pressure;altitude;pressure_sealevel;temperature;humidity
10806;BME280;5455;53.224;6.000;2023-09-19T00:00:36;100376.75;;;13.95;100.00
10806;BME280;5455;53.224;6.000;2023-09-19T00:03:03;100371.59;;;13.97;100.00
10806;BME280;5455;53.224;6.000;2023-09-19T00:05:34;100385.84;;;13.89;100.00
10806;BME280;5455;53.224;6.000;2023-09-19T00:08:02;100390.59;;;13.88;100.00
10806;BME280;5455;53.224;6.000;2023-09-19T00:10:32;100385.47;;;13.97;100.00
10806;BME280;5455;53.224;6.000;2023-09-19T00:13:04;100393.81;;;14.08;100.00
10806;BME280;5455;53.224;6.000;2023-09-19T00:15:41;100397.78;;;14.24;100.00
10806;BME280;5455;53.224;6.000;2023-09-19T00:18:09;100399.38;;;14.29;100.00
10806;BME280;5455;53.224;6.000;2023-09-19T00:20:37;100416.47;;;14.42;100.00
10806;BME280;5455;53.224;6.000;2023-09-19T00:23:05;100411.69;;;14.46;100.00
10806;BME280;5455;53.224;6.000;2023-09-19T00:25:36;100429.16;;;14.57;100.00
10806;BME280;5455;53.224;6.000;2023-09-19T00:28:05;100420.41;;;14.62;100.00
10806;BME280;5455;53.224;6.000;2023-09-19T00:30:34;100415.25;;;14.64;100.00
10806;BME280;5455;53.224;6.000;2023-09-19T00:33:02;100415.66;;;14.55;100.00
10806;BME280;5455;53.224;6.000;2023-09-19T00:35:33;100423.97;;;14.55;100.00
10806;BME280;5455;53.224;6.000;2023-09-19T00:38:00;100418.03;;;14.50;100.00
10806;BME280;5455;53.224;6.000;2023-09-19T00:40:28;100420.81;;;14.43;100.00
10806;BME280;5455;53.224;6.000;2023-09-19T00:42:58;100421.94;;;14.31;100.00
10806;BME280;5455;53.224;6.000;2023-09-19T00:45:28;100424.72;;;14.20;100.00
10806;BME280;5455;53.224;6.000;2023-09-19T00:47:56;100423.09;;;14.12;100.00
10806;BME280;5455;53.224;6.000;2023-09-19T00:50:26;100423.50;;;14.04;100.00
10806;BME280;5455;53.224;6.000;2023-09-19T00:52:55;100432.59;;;14.01;100.00
10806;BME280;5455;53.224;6.000;2023-09-19T00:55:25;100428.22;;;13.93;100.00
10806;BME280;5455;53.224;6.000;2023-09-19T00:57:55;100439.28;;;13.86;100.00
10806;BME280;5455;53.224;6.000;2023-09-19T01:00:24;100436.50;;;13.78;100.00
10806;BME280;5455;53.224;6.000;2023-09-19T01:02:51;100447.56;;;13.75;100.00
10806;BME280;5455;53.224;6.000;2023-09-19T01:05:19;100439.59;;;13.70;100.00
10806;BME280;5455;53.224;6.000;2023-09-19T01:07:47;100437.63;;;13.67;100.00
10806;BME280;5455;53.224;6.000;2023-09-19T01:10:17;100437.97;;;13.58;100.00
10806;BME280;5455;53.224;6.000;2023-09-19T01:18:40;100445.47;;;13.47;100.00
10806;BME280;5455;53.224;6.000;2023-09-19T01:20:53;100453.72;;;13.40;100.00
10806;BME280;5455;53.224;6.000;2023-09-19T01:29:39;100452.47;;;13.27;100.00
10806;BME280;5455;53.224;6.000;2023-09-19T01:32:08;100460.00;;;13.27;100.00
10806;BME280;5455;53.224;6.000;2023-09-19T01:34:47;100460.78;;;13.27;100.00
10806;BME280;5455;53.224;6.000;2023-09-19T01:37:15;100465.91;;;13.29;100.00
10806;BME280;5455;53.224;6.000;2023-09-19T01:39:50;100474.34;;;13.43;100.00
10806;BME280;5455;53.224;6.000;2023-09-19T01:45:12;100467.31;;;13.70;100.00
10806;BME280;5455;53.224;6.000;2023-09-19T01:47:49;100479.59;;;13.69;100.00
10806;BME280;5455;53.224;6.000;2023-09-19T01:52:57;100473.19;;;13.58;100.00
10806;BME280;5455;53.224;6.000;2023-09-19T01:55:28;100467.25;;;13.49;100.00
10806;BME280;5455;53.224;6.000;2023-09-19T02:00:49;100455.28;;;13.38;100.00
10806;BME280;5455;53.224;6.000;2023-09-19T02:03:21;100462.44;;;13.39;100.00
10806;BME280;5455;53.224;6.000;2023-09-19T02:05:52;100451.38;;;13.42;100.00
10806;BME280;5455;53.224;6.000;2023-09-19T02:08:22;100455.31;;;13.41;100.00
10806;BME280;5455;53.224;6.000;2023-09-19T02:10:53;100452.94;;;13.40;100.00
10806;BME280;5455;53.224;6.000;2023-09-19T02:13:21;100461.66;;;13.42;100.00
10806;BME280;5455;53.224;6.000;2023-09-19T02:15:51;100450.97;;;13.44;100.00
10806;BME280;5455;53.224;6.000;2023-09-19T02:18:18;100462.88;;;13.48;100.00
10806;BME280;5455;53.224;6.000;2023-09-19T02:20:47;100453.78;;;13.47;100.00
10806;BME280;5455;53.224;6.000;2023-09-19T02:23:15;100453.41;;;13.49;100.00
10806;BME280;5455;53.224;6.000;2023-09-19T02:25:42;100458.16;;;13.52;100.00
10806;BME280;5455;53.224;6.000;2023-09-19T02:28:10;100455.38;;;13.52;100.00
10806;BME280;5455;53.224;6.000;2023-09-19T02:30:37;100461.34;;;13.57;100.00
10806;BME280;5455;53.224;6.000;2023-09-19T02:33:04;100463.78;;;13.69;100.00
10806;BME280;5455;53.224;6.000;2023-09-19T02:35:31;100461.06;;;13.84;100.00
10806;BME280;5455;53.224;6.000;2023-09-19T02:38:02;100468.22;;;13.95;100.00
10806;BME280;5455;53.224;6.000;2023-09-19T02:40:34;100470.16;;;13.91;100.00
10806;BME280;5455;53.224;6.000;2023-09-19T02:43:03;100490.81;;;14.04;100.00
10806;BME280;5455;53.224;6.000;2023-09-19T02:45:32;100514.63;;;14.19;100.00
10806;BME280;5455;53.224;6.000;2023-09-19T02:48:00;100515.03;;;14.21;100.00
10806;BME280;5455;53.224;6.000;2023-09-19T02:50:27;100494.81;;;14.10;100.00
10806;BME280;5455;53.224;6.000;2023-09-19T02:52:55;100480.53;;;14.05;100.00
10806;BME280;5455;53.224;6.000;2023-09-19T02:55:23;100484.47;;;14.04;100.00
10806;BME280;5455;53.224;6.000;2023-09-19T02:57:52;100474.53;;;13.92;100.00
10806;BME280;5455;53.224;6.000;2023-09-19T03:00:22;100472.56;;;13.89;100.00
10806;BME280;5455;53.224;6.000;2023-09-19T03:02:50;100465.38;;;13.77;100.00
10806;BME280;5455;53.224;6.000;2023-09-19T03:05:21;100459.44;;;13.72;100.00
10806;BME280;5455;53.224;6.000;2023-09-19T03:07:49;100460.19;;;13.65;100.00
10806;BME280;5455;53.224;6.000;2023-09-19T03:10:21;100464.88;;;13.58;100.00
10806;BME280;5455;53.224;6.000;2023-09-19T03:12:50;100474.38;;;13.53;100.00
10806;BME280;5455;53.224;6.000;2023-09-19T03:15:18;100477.50;;;13.45;100.00
10806;BME280;5455;53.224;6.000;2023-09-19T03:17:49;100486.22;;;13.47;100.00
10806;BME280;5455;53.224;6.000;2023-09-19T03:20:20;100487.34;;;13.35;100.00
10806;BME280;5455;53.224;6.000;2023-09-19T03:22:49;100488.06;;;13.29;100.00
10806;BME280;5455;53.224;6.000;2023-09-19T03:25:16;100480.50;;;13.22;100.00
10806;BME280;5455;53.224;6.000;2023-09-19T03:27:49;100479.69;;;13.14;100.00
10806;BME280;5455;53.224;6.000;2023-09-19T03:30:19;100489.13;;;13.10;100.00
10806;BME280;5455;53.224;6.000;2023-09-19T03:32:47;100481.63;;;13.10;100.00
10806;BME280;5455;53.224;6.000;2023-09-19T03:35:53;100483.31;;;13.25;100.00
10806;BME280;5455;53.224;6.000;2023-09-19T03:38:34;100492.38;;;13.22;100.00
10806;BME280;5455;53.224;6.000;2023-09-19T03:41:02;100482.50;;;13.21;100.00
10806;BME280;5455;53.224;6.000;2023-09-19T03:43:29;100488.84;;;13.25;100.00
10806;BME280;5455;53.224;6.000;2023-09-19T03:45:56;100485.34;;;13.36;100.00
10806;BME280;5455;53.224;6.000;2023-09-19T03:48:28;100489.41;;;13.49;100.00
10806;BME280;5455;53.224;6.000;2023-09-19T03:50:56;100490.63;;;13.58;100.00
10806;BME280;5455;53.224;6.000;2023-09-19T03:53:24;100490.31;;;13.74;100.00
10806;BME280;5455;53.224;6.000;2023-09-19T03:55:51;100486.38;;;13.75;100.00
10806;BME280;5455;53.224;6.000;2023-09-19T03:58:18;100488.31;;;13.71;100.00
10806;BME280;5455;53.224;6.000;2023-09-19T04:00:46;100493.41;;;13.62;100.00
10806;BME280;5455;53.224;6.000;2023-09-19T04:03:13;100498.47;;;13.49;100.00
10806;BME280;5455;53.224;6.000;2023-09-19T04:05:46;100504.81;;;13.43;100.00
10806;BME280;5455;53.224;6.000;2023-09-19T04:08:17;100506.75;;;13.39;100.00
10806;BME280;5455;53.224;6.000;2023-09-19T04:10:44;100502.72;;;13.29;100.00
10806;BME280;5455;53.224;6.000;2023-09-19T04:13:12;100497.59;;;13.28;100.00
10806;BME280;5455;53.224;6.000;2023-09-19T04:15:39;100487.34;;;13.39;100.00
10806;BME280;5455;53.224;6.000;2023-09-19T04:18:07;100479.88;;;13.43;100.00
10806;BME280;5455;53.224;6.000;2023-09-19T04:20:35;100498.09;;;13.47;100.00
10806;BME280;5455;53.224;6.000;2023-09-19T04:23:01;100505.22;;;13.48;100.00
10806;BME280;5455;53.224;6.000;2023-09-19T04:25:29;100496.56;;;13.57;100.00
10806;BME280;5455;53.224;6.000;2023-09-19T04:27:56;100503.66;;;13.58;100.00
10806;BME280;5455;53.224;6.000;2023-09-19T04:30:23;100521.09;;;13.58;100.00
10806;BME280;5455;53.224;6.000;2023-09-19T04:32:49;100515.56;;;13.58;100.00
10806;BME280;5455;53.224;6.000;2023-09-19T04:35:18;100520.34;;;13.65;100.00
10806;BME280;5455;53.224;6.000;2023-09-19T04:37:45;100516.41;;;13.73;100.00
10806;BME280;5455;53.224;6.000;2023-09-19T04:40:14;100516.44;;;13.76;100.00
10806;BME280;5455;53.224;6.000;2023-09-19T04:42:45;100510.13;;;13.79;100.00
10806;BME280;5455;53.224;6.000;2023-09-19T04:45:12;100506.53;;;13.79;100.00
10806;BME280;5455;53.224;6.000;2023-09-19T04:47:39;100517.66;;;13.82;100.00
10806;BME280;5455;53.224;6.000;2023-09-19T04:50:08;100516.47;;;13.84;100.00
10806;BME280;5455;53.224;6.000;2023-09-19T04:52:42;100530.34;;;13.84;100.00
10806;BME280;5455;53.224;6.000;2023-09-19T04:55:14;100525.59;;;13.84;100.00
10806;BME280;5455;53.224;6.000;2023-09-19T04:57:48;100524.78;;;13.80;100.00
10806;BME280;5455;53.224;6.000;2023-09-19T05:00:20;100511.75;;;13.88;100.00
10806;BME280;5455;53.224;6.000;2023-09-19T05:02:51;100517.31;;;13.88;100.00
10806;BME280;5455;53.224;6.000;2023-09-19T05:05:19;100518.88;;;13.89;100.00
10806;BME280;5455;53.224;6.000;2023-09-19T05:07:46;100519.31;;;13.98;100.00
10806;BME280;5455;53.224;6.000;2023-09-19T05:10:14;100534.41;;;14.07;100.00
10806;BME280;5455;53.224;6.000;2023-09-19T05:12:41;100532.44;;;14.11;100.00
10806;BME280;5455;53.224;6.000;2023-09-19T05:15:10;100534.81;;;14.13;100.00
10806;BME280;5455;53.224;6.000;2023-09-19T05:17:37;100527.69;;;14.19;100.00
10806;BME280;5455;53.224;6.000;2023-09-19T05:20:05;100538.00;;;14.22;100.00
10806;BME280;5455;53.224;6.000;2023-09-19T05:23:05;100533.69;;;14.28;100.00
10806;BME280;5455;53.224;6.000;2023-09-19T05:25:35;100529.72;;;14.25;100.00
10806;BME280;5455;53.224;6.000;2023-09-19T05:28:07;100532.88;;;14.27;100.00
10806;BME280;5455;53.224;6.000;2023-09-19T05:30:35;100542.78;;;14.25;100.00
10806;BME280;5455;53.224;6.000;2023-09-19T05:33:03;100542.81;;;14.32;100.00
10806;BME280;5455;53.224;6.000;2023-09-19T05:35:31;100542.84;;;14.36;100.00
10806;BME280;5455;53.224;6.000;2023-09-19T05:38:00;100552.78;;;14.44;100.00
10806;BME280;5455;53.224;6.000;2023-09-19T05:40:27;100547.25;;;14.51;100.00
10806;BME280;5455;53.224;6.000;2023-09-19T05:42:54;100538.13;;;14.57;100.00
10806;BME280;5455;53.224;6.000;2023-09-19T05:45:21;100538.13;;;14.57;100.00
10806;BME280;5455;53.224;6.000;2023-09-19T05:47:52;100539.72;;;14.48;100.00
10806;BME280;5455;53.224;6.000;2023-09-19T05:50:22;100536.50;;;14.42;100.00
10806;BME280;5455;53.224;6.000;2023-09-19T05:52:53;100557.50;;;14.40;100.00
10806;BME280;5455;53.224;6.000;2023-09-19T05:55:20;100562.28;;;14.36;100.00
10806;BME280;5455;53.224;6.000;2023-09-19T05:57:51;100568.22;;;14.41;100.00
10806;BME280;5455;53.224;6.000;2023-09-19T06:00:22;100565.88;;;14.47;100.00
10806;BME280;5455;53.224;6.000;2023-09-19T06:02:57;100570.22;;;14.51;100.00
10806;BME280;5455;53.224;6.000;2023-09-19T06:05:26;100569.50;;;14.72;100.00
10806;BME280;5455;53.224;6.000;2023-09-19T06:07:53;100568.31;;;14.83;100.00
10806;BME280;5455;53.224;6.000;2023-09-19T06:10:21;100569.91;;;14.88;100.00
10806;BME280;5455;53.224;6.000;2023-09-19T06:12:49;100576.25;;;14.92;100.00
10806;BME280;5455;53.224;6.000;2023-09-19T06:15:17;100574.69;;;14.95;100.00
10806;BME280;5455;53.224;6.000;2023-09-19T06:17:53;100582.22;;;14.98;100.00
10806;BME280;5455;53.224;6.000;2023-09-19T06:20:28;100567.94;;;15.03;100.00
10806;BME280;5455;53.224;6.000;2023-09-19T06:22:55;100575.47;;;15.06;100.00
10806;BME280;5455;53.224;6.000;2023-09-19T06:25:22;100573.09;;;15.08;100.00
10806;BME280;5455;53.224;6.000;2023-09-19T06:27:51;100570.31;;;15.11;100.00
10806;BME280;5455;53.224;6.000;2023-09-19T06:30:23;100574.69;;;15.23;100.00
10806;BME280;5455;53.224;6.000;2023-09-19T06:32:59;100575.84;;;15.32;100.00
10806;BME280;5455;53.224;6.000;2023-09-19T06:35:32;100580.63;;;15.39;100.00
10806;BME280;5455;53.224;6.000;2023-09-19T06:38:03;100569.13;;;15.40;100.00
10806;BME280;5455;53.224;6.000;2023-09-19T06:40:31;100579.03;;;15.45;100.00
10806;BME280;5455;53.224;6.000;2023-09-19T06:42:58;100565.97;;;15.49;100.00
10806;BME280;5455;53.224;6.000;2023-09-19T06:45:28;100567.53;;;15.54;100.00
10806;BME280;5455;53.224;6.000;2023-09-19T06:47:55;100563.56;;;15.58;100.00
10806;BME280;5455;53.224;6.000;2023-09-19T06:50:26;100576.25;;;15.63;100.00
10806;BME280;5455;53.224;6.000;2023-09-19T06:52:55;100582.59;;;15.67;100.00
10806;BME280;5455;53.224;6.000;2023-09-19T06:55:25;100577.44;;;15.72;100.00
10806;BME280;5455;53.224;6.000;2023-09-19T06:57:55;100582.59;;;15.74;100.00
10806;BME280;5455;53.224;6.000;2023-09-19T07:00:22;100589.72;;;15.82;100.00
10806;BME280;5455;53.224;6.000;2023-09-19T07:03:03;100583.34;;;15.92;100.00
10806;BME280;5455;53.224;6.000;2023-09-19T07:05:32;100581.75;;;15.98;100.00
10806;BME280;5455;53.224;6.000;2023-09-19T07:07:59;100592.03;;;16.12;100.00
10806;BME280;5455;53.224;6.000;2023-09-19T07:10:27;100584.47;;;16.16;100.00
10806;BME280;5455;53.224;6.000;2023-09-19T07:12:59;100593.56;;;16.20;100.00
10806;BME280;5455;53.224;6.000;2023-09-19T07:15:27;100592.78;;;16.19;100.00
10806;BME280;5455;53.224;6.000;2023-09-19T07:17:55;100594.75;;;16.22;100.00
10806;BME280;5455;53.224;6.000;2023-09-19T07:20:24;100595.97;;;16.18;100.00
10806;BME280;5455;53.224;6.000;2023-09-19T07:22:58;100595.59;;;16.16;100.00
10806;BME280;5455;53.224;6.000;2023-09-19T07:25:29;100599.94;;;16.20;100.00
10806;BME280;5455;53.224;6.000;2023-09-19T07:27:57;100601.13;;;16.23;100.00
10806;BME280;5455;53.224;6.000;2023-09-19T07:30:28;100609.44;;;16.26;100.00
10806;BME280;5455;53.224;6.000;2023-09-19T07:32:56;100595.53;;;16.33;100.00
10806;BME280;5455;53.224;6.000;2023-09-19T07:35:23;100597.81;;;16.56;100.00
10806;BME280;5455;53.224;6.000;2023-09-19T07:37:50;100603.34;;;16.67;100.00
10806;BME280;5455;53.224;6.000;2023-09-19T07:40:19;100609.25;;;16.76;100.00
10806;BME280;5455;53.224;6.000;2023-09-19T07:42:48;100598.91;;;16.76;100.00
10806;BME280;5455;53.224;6.000;2023-09-19T07:45:15;100608.84;;;16.74;100.00
10806;BME280;5455;53.224;6.000;2023-09-19T07:47:49;100604.88;;;16.71;100.00
10806;BME280;5455;53.224;6.000;2023-09-19T07:50:17;100611.28;;;16.65;100.00
10806;BME280;5455;53.224;6.000;2023-09-19T07:52:48;100609.72;;;16.64;100.00
10806;BME280;5455;53.224;6.000;2023-09-19T07:55:18;100600.56;;;16.63;100.00
10806;BME280;5455;53.224;6.000;2023-09-19T07:57:47;100602.56;;;16.63;100.00
10806;BME280;5455;53.224;6.000;2023-09-19T08:00:14;100597.38;;;16.65;100.00
10806;BME280;5455;53.224;6.000;2023-09-19T08:02:42;100584.66;;;16.64;100.00
10806;BME280;5455;53.224;6.000;2023-09-19T08:05:10;100588.59;;;16.70;100.00
10806;BME280;5455;53.224;6.000;2023-09-19T08:07:39;100590.94;;;16.78;100.00
10806;BME280;5455;53.224;6.000;2023-09-19T08:10:07;100599.63;;;16.91;100.00
10806;BME280;5455;53.224;6.000;2023-09-19T08:12:34;100579.63;;;17.03;100.00
10806;BME280;5455;53.224;6.000;2023-09-19T08:15:06;100593.75;;;17.30;100.00
10806;BME280;5455;53.224;6.000;2023-09-19T08:17:35;100604.47;;;17.31;100.00
10806;BME280;5455;53.224;6.000;2023-09-19T08:20:02;100606.06;;;17.32;100.00
10806;BME280;5455;53.224;6.000;2023-09-19T08:22:32;100604.00;;;17.40;100.00
10806;BME280;5455;53.224;6.000;2023-09-19T08:24:59;100610.31;;;17.47;100.00
10806;BME280;5455;53.224;6.000;2023-09-19T08:27:26;100597.91;;;17.52;100.00
10806;BME280;5455;53.224;6.000;2023-09-19T08:29:56;100605.00;;;17.63;100.00
10806;BME280;5455;53.224;6.000;2023-09-19T08:32:23;100593.38;;;17.72;100.00
10806;BME280;5455;53.224;6.000;2023-09-19T08:34:53;100601.59;;;17.86;100.00
10806;BME280;5455;53.224;6.000;2023-09-19T08:37:19;100589.47;;;18.00;100.00
10806;BME280;5455;53.224;6.000;2023-09-19T08:39:48;100585.78;;;18.10;100.00
10806;BME280;5455;53.224;6.000;2023-09-19T08:42:15;100582.16;;;18.13;100.00
10806;BME280;5455;53.224;6.000;2023-09-19T08:44:43;100581.28;;;18.20;100.00
10806;BME280;5455;53.224;6.000;2023-09-19T08:47:11;100584.97;;;18.13;100.00
10806;BME280;5455;53.224;6.000;2023-09-19T08:52:25;100604.72;;;18.29;100.00
10806;BME280;5455;53.224;6.000;2023-09-19T08:54:58;100604.78;;;18.22;100.00
10806;BME280;5455;53.224;6.000;2023-09-19T08:57:29;100594.91;;;18.14;100.00
10806;BME280;5455;53.224;6.000;2023-09-19T09:00:02;100606.13;;;18.10;100.00
10806;BME280;5455;53.224;6.000;2023-09-19T09:02:33;100624.84;;;18.10;100.00
10806;BME280;5455;53.224;6.000;2023-09-19T09:05:01;100610.75;;;18.21;100.00
10806;BME280;5455;53.224;6.000;2023-09-19T09:07:32;100615.50;;;18.24;100.00
10806;BME280;5455;53.224;6.000;2023-09-19T09:10:02;100613.13;;;18.26;100.00
10806;BME280;5455;53.224;6.000;2023-09-19T09:12:30;100607.88;;;18.31;100.00
10806;BME280;5455;53.224;6.000;2023-09-19T09:14:58;100605.47;;;18.30;100.00
10806;BME280;5455;53.224;6.000;2023-09-19T09:17:25;100599.13;;;18.29;100.00
10806;BME280;5455;53.224;6.000;2023-09-19T09:19:53;100595.91;;;18.31;100.00
10806;BME280;5455;53.224;6.000;2023-09-19T09:22:20;100600.97;;;18.39;100.00
10806;BME280;5455;53.224;6.000;2023-09-19T09:24:54;100595.66;;;18.48;100.00
10806;BME280;5455;53.224;6.000;2023-09-19T09:27:25;100590.41;;;18.57;100.00
10806;BME280;5455;53.224;6.000;2023-09-19T09:29:52;100589.88;;;18.66;100.00
10806;BME280;5455;53.224;6.000;2023-09-19T09:32:24;100595.31;;;18.77;100.00
10806;BME280;5455;53.224;6.000;2023-09-19T09:34:57;100599.75;;;18.74;100.00
10806;BME280;5455;53.224;6.000;2023-09-19T09:37:28;100594.78;;;18.85;100.00
10806;BME280;5455;53.224;6.000;2023-09-19T09:39:59;100592.31;;;18.91;100.00
10806;BME280;5455;53.224;6.000;2023-09-19T09:42:46;100588.41;;;19.11;100.00
10806;BME280;5455;53.224;6.000;2023-09-19T09:45:20;100596.09;;;19.31;100.00
10806;BME280;5455;53.224;6.000;2023-09-19T09:48:00;100586.69;;;19.67;100.00
10806;BME280;5455;53.224;6.000;2023-09-19T09:50:34;100599.81;;;19.70;100.00
10806;BME280;5455;53.224;6.000;2023-09-19T09:53:19;100585.44;;;19.92;100.00
10806;BME280;5455;53.224;6.000;2023-09-19T09:56:09;100586.97;;;19.73;97.36
10806;BME280;5455;53.224;6.000;2023-09-19T09:58:38;100573.59;;;19.38;99.70
10806;BME280;5455;53.224;6.000;2023-09-19T10:01:16;100571.31;;;19.29;100.00
10806;BME280;5455;53.224;6.000;2023-09-19T10:03:45;100561.00;;;19.26;100.00
10806;BME280;5455;53.224;6.000;2023-09-19T10:06:17;100566.47;;;19.33;100.00
10806;BME280;5455;53.224;6.000;2023-09-19T10:09:06;100563.28;;;19.58;100.00
10806;BME280;5455;53.224;6.000;2023-09-19T10:11:48;100568.69;;;19.45;100.00
10806;BME280;5455;53.224;6.000;2023-09-19T10:14:26;100580.91;;;19.32;100.00
10806;BME280;5455;53.224;6.000;2023-09-19T10:16:56;100564.38;;;19.14;100.00
10806;BME280;5455;53.224;6.000;2023-09-19T10:19:36;100546.28;;;18.99;100.00
10806;BME280;5455;53.224;6.000;2023-09-19T10:22:05;100548.75;;;18.93;100.00
10806;BME280;5455;53.224;6.000;2023-09-19T10:24:36;100554.63;;;19.25;100.00
10806;BME280;5455;53.224;6.000;2023-09-19T10:27:15;100553.03;;;19.24;100.00
10806;BME280;5455;53.224;6.000;2023-09-19T10:29:44;100543.59;;;19.42;100.00
10806;BME280;5455;53.224;6.000;2023-09-19T10:32:15;100540.59;;;19.52;100.00
10806;BME280;5455;53.224;6.000;2023-09-19T10:34:49;100546.38;;;19.85;100.00
10806;BME280;5455;53.224;6.000;2023-09-19T10:37:16;100535.97;;;19.85;100.00
10806;BME280;5455;53.224;6.000;2023-09-19T10:39:46;100545.16;;;19.86;100.00
10806;BME280;5455;53.224;6.000;2023-09-19T10:42:19;100536.91;;;19.78;100.00
10806;BME280;5455;53.224;6.000;2023-09-19T10:44:51;100528.94;;;19.77;100.00
10806;BME280;5455;53.224;6.000;2023-09-19T10:47:21;100534.81;;;19.63;100.00
10806;BME280;5455;53.224;6.000;2023-09-19T10:49:51;100531.13;;;19.46;100.00
10806;BME280;5455;53.224;6.000;2023-09-19T10:52:25;100551.66;;;19.13;100.00
10806;BME280;5455;53.224;6.000;2023-09-19T10:54:55;100521.13;;;18.99;100.00
10806;BME280;5455;53.224;6.000;2023-09-19T10:57:25;100526.19;;;19.07;100.00
10806;BME280;5455;53.224;6.000;2023-09-19T11:02:31;100529.38;;;18.83;100.00
10806;BME280;5455;53.224;6.000;2023-09-19T11:05:11;100519.59;;;18.71;100.00
10806;BME280;5455;53.224;6.000;2023-09-19T11:07:58;100517.06;;;18.80;100.00
10806;BME280;5455;53.224;6.000;2023-09-19T11:10:50;100516.81;;;19.17;100.00
10806;BME280;5455;53.224;6.000;2023-09-19T11:13:28;100508.03;;;19.42;100.00
10806;BME280;5455;53.224;6.000;2023-09-19T11:27:09;100508.25;;;18.82;100.00
10806;BME280;5455;53.224;6.000;2023-09-19T11:29:36;100491.56;;;18.75;100.00
10806;BME280;5455;53.224;6.000;2023-09-19T11:32:04;100482.31;;;18.81;100.00
10806;BME280;5455;53.224;6.000;2023-09-19T11:37:59;100478.91;;;18.93;100.00
10806;BME280;5455;53.224;6.000;2023-09-19T11:48:18;100487.19;;;18.50;100.00
10806;BME280;5455;53.224;6.000;2023-09-19T11:50:46;100470.72;;;18.29;100.00
10806;BME280;5455;53.224;6.000;2023-09-19T11:53:14;100480.50;;;18.14;100.00
10806;BME280;5455;53.224;6.000;2023-09-19T11:55:43;100487.69;;;18.11;100.00
10806;BME280;5455;53.224;6.000;2023-09-19T11:58:12;100491.94;;;17.93;100.00
10806;BME280;5455;53.224;6.000;2023-09-19T12:00:41;100495.00;;;17.72;100.00
10806;BME280;5455;53.224;6.000;2023-09-19T12:03:11;100504.84;;;17.42;100.00
10806;BME280;5455;53.224;6.000;2023-09-19T12:05:41;100489.09;;;17.22;100.00
10806;BME280;5455;53.224;6.000;2023-09-19T12:08:08;100483.47;;;17.29;100.00
10806;BME280;5455;53.224;6.000;2023-09-19T12:10:46;100482.13;;;17.44;100.00
10806;BME280;5455;53.224;6.000;2023-09-19T12:13:18;100472.00;;;17.60;100.00
10806;BME280;5455;53.224;6.000;2023-09-19T12:15:46;100470.53;;;17.83;100.00
10806;BME280;5455;53.224;6.000;2023-09-19T12:18:30;100463.38;;;18.12;100.00
10806;BME280;5455;53.224;6.000;2023-09-19T12:20:57;100461.88;;;18.34;100.00
10806;BME280;5455;53.224;6.000;2023-09-19T12:23:25;100461.56;;;18.55;100.00
10806;BME280;5455;53.224;6.000;2023-09-19T12:25:52;100457.34;;;18.70;100.00
10806;BME280;5455;53.224;6.000;2023-09-19T12:28:27;100450.66;;;18.88;100.00
10806;BME280;5455;53.224;6.000;2023-09-19T12:31:07;100437.44;;;18.92;100.00
10806;BME280;5455;53.224;6.000;2023-09-19T12:33:38;100438.75;;;19.07;100.00
10806;BME280;5455;53.224;6.000;2023-09-19T12:36:33;100433.47;;;19.32;100.00
10806;BME280;5455;53.224;6.000;2023-09-19T12:39:01;100427.81;;;19.36;100.00
10806;BME280;5455;53.224;6.000;2023-09-19T12:41:35;100429.84;;;18.92;100.00
10806;BME280;5455;53.224;6.000;2023-09-19T12:44:02;100441.31;;;18.75;100.00
10806;BME280;5455;53.224;6.000;2023-09-19T12:46:35;100422.13;;;18.53;100.00
10806;BME280;5455;53.224;6.000;2023-09-19T12:49:19;100438.47;;;18.25;100.00
10806;BME280;5455;53.224;6.000;2023-09-19T12:51:47;100444.53;;;18.20;100.00
10806;BME280;5455;53.224;6.000;2023-09-19T12:54:14;100448.50;;;18.22;100.00
10806;BME280;5455;53.224;6.000;2023-09-19T12:56:44;100443.44;;;18.40;100.00
10806;BME280;5455;53.224;6.000;2023-09-19T12:59:12;100431.00;;;18.18;100.00
10806;BME280;5455;53.224;6.000;2023-09-19T13:01:43;100442.97;;;17.88;100.00
10806;BME280;5455;53.224;6.000;2023-09-19T13:04:16;100434.25;;;18.13;100.00
10806;BME280;5455;53.224;6.000;2023-09-19T13:06:49;100444.88;;;18.48;100.00
10806;BME280;5455;53.224;6.000;2023-09-19T13:09:19;100434.41;;;18.59;100.00
10806;BME280;5455;53.224;6.000;2023-09-19T13:11:47;100438.75;;;18.60;100.00
10806;BME280;5455;53.224;6.000;2023-09-19T13:14:21;100446.53;;;18.73;100.00
10806;BME280;5455;53.224;6.000;2023-09-19T13:19:50;100430.81;;;18.59;100.00
10806;BME280;5455;53.224;6.000;2023-09-19T13:22:43;100429.38;;;18.74;100.00
10806;BME280;5455;53.224;6.000;2023-09-19T13:25:38;100418.66;;;18.92;100.00
10806;BME280;5455;53.224;6.000;2023-09-19T13:28:06;100423.88;;;18.67;100.00
10806;BME280;5455;53.224;6.000;2023-09-19T13:30:37;100437.25;;;18.56;100.00
10806;BME280;5455;53.224;6.000;2023-09-19T13:33:10;100426.03;;;18.59;100.00
10806;BME280;5455;53.224;6.000;2023-09-19T13:35:40;100423.78;;;18.74;100.00
10806;BME280;5455;53.224;6.000;2023-09-19T13:38:08;100413.00;;;18.96;100.00
10806;BME280;5455;53.224;6.000;2023-09-19T13:40:39;100408.88;;;19.23;100.00
10806;BME280;5455;53.224;6.000;2023-09-19T13:43:09;100417.19;;;19.07;100.00
10806;BME280;5455;53.224;6.000;2023-09-19T13:45:35;100410.19;;;18.96;100.00
10806;BME280;5455;53.224;6.000;2023-09-19T13:48:04;100403.91;;;18.92;100.00
10806;BME280;5455;53.224;6.000;2023-09-19T13:50:31;100414.47;;;18.81;100.00
10806;BME280;5455;53.224;6.000;2023-09-19T13:52:58;100397.34;;;18.79;100.00
10806;BME280;5455;53.224;6.000;2023-09-19T13:55:27;100384.13;;;18.83;100.00
10806;BME280;5455;53.224;6.000;2023-09-19T13:57:54;100401.78;;;18.76;100.00